Latest Weather Observations for Ben Nevis

IDV60801

Issued at 5:12 pm EDT Tuesday 19 January 2021 (issued every 10 minutes, with the page automatically refreshed every 10 minutes)

About weather observations | Map of weather stations | Latest weather observations for VIC | Other Formats
Station Details ID: 079101 Name: BEN NEVIS Lat: -37.23 Lon: 143.20 Height: 875.0 m
Data from the previous 72 hours. | See also: Recent months at Ben Nevis
Date/Time
EDT
Temp
°C
App
Temp
°C
Dew
Point
°C
Rel
Hum
%
Delta-T
°C
Wind Press
QNH
hPa
Press
MSL
hPa
Rain since
9am
mm
Dir  Spd
km/h
Gust
km/h
Spd
kts
Gust
kts
19/05:00pm 16.1 10.0 2.9 41 6.3 SSE 24 41 13 22 - - 0.0
19/04:30pm 16.3 11.2 3.0 41 6.4 S 19 30 10 16 - - 0.0
19/04:00pm 16.7 12.2 4.1 43 6.2 SSE 17 28 9 15 - - 0.0
19/03:30pm 16.7 11.8 4.1 43 6.2 S 19 33 10 18 - - 0.0
19/03:00pm 16.3 11.3 4.7 46 5.7 S 20 32 11 17 - - 0.0
19/02:30pm 16.0 11.5 4.1 45 5.8 S 17 33 9 18 - - 0.0
19/02:00pm 16.3 12.6 6.2 51 5.2 S 15 32 8 17 - - 0.0
19/01:30pm 14.9 10.8 6.0 55 4.5 SSE 17 28 9 15 - - 0.0
19/01:00pm 14.8 11.2 6.6 58 4.2 SSE 15 28 8 15 - - 0.0
19/12:30pm 12.9 8.6 5.1 59 3.8 SSE 17 32 9 17 - - 0.0
19/12:00pm 12.2 7.4 4.7 60 3.6 S 19 33 10 18 - - 0.0
19/11:30am 11.6 7.4 5.7 67 2.9 SSE 17 28 9 15 - - 0.0
19/11:00am 11.3 7.4 5.2 66 2.9 SSE 15 24 8 13 - - 0.0
19/10:30am 9.7 4.5 5.3 74 2.1 SSE 22 33 12 18 - - 0.0
19/10:00am 9.5 4.8 5.3 75 2.0 S 19 35 10 19 - - 0.0
19/09:30am 9.3 5.9 5.9 79 1.6 SE 13 22 7 12 - - 0.0
19/09:00am 8.3 4.7 5.2 81 1.5 SSE 13 28 7 15 - - 0.8
19/08:30am 7.7 3.3 4.7 81 1.4 SSE 17 30 9 16 - - 0.8
19/08:00am 6.6 1.2 4.3 85 1.0 S 22 35 12 19 - - 0.8
19/07:30am 6.2 0.1 4.7 90 0.7 S 26 43 14 23 - - 0.8
19/07:00am 5.6 -0.2 4.6 93 0.5 S 24 43 13 23 - - 0.8
19/06:30am 6.0 1.1 5.3 95 0.3 S 20 39 11 21 - - 0.8
19/06:00am 6.4 1.7 6.0 97 0.2 SSW 20 37 11 20 - - 0.8
19/05:30am 6.4 -0.2 6.1 98 0.1 S 30 52 16 28 - - 0.8
19/05:00am 6.7 -0.7 6.6 99 0.0 S 35 57 19 31 - - 0.8
19/04:30am 6.8 -2.3 6.7 99 0.0 S 44 67 24 36 - - 0.6
19/04:00am 6.8 -1.4 6.7 99 0.0 S 39 57 21 31 - - 0.6
19/03:59am 6.8 -1.4 6.7 99 0.0 S 39 57 21 31 - - 0.6
19/03:30am 7.0 -0.4 6.9 99 0.0 S 35 50 19 27 - - 0.6
19/03:00am 7.4 0.5 7.3 99 0.0 S 33 54 18 29 - - 0.6
19/02:30am 8.1 1.9 8.0 99 0.1 SSW 30 50 16 27 - - 0.6
19/02:00am 8.1 1.4 8.0 99 0.1 SSW 33 57 18 31 - - 0.4
19/01:30am 8.2 1.5 8.1 99 0.1 SSW 33 52 18 28 - - 0.2
19/01:11am 8.3 2.2 8.2 99 0.1 S 30 48 16 26 - - 0.2
19/01:00am 8.1 1.4 8.0 99 0.1 SSW 33 48 18 26 - - 0.2
19/12:33am 8.2 2.1 8.1 99 0.1 SSW 30 48 16 26 - - 0.2
19/12:30am 8.4 2.7 8.3 99 0.1 SSW 28 44 15 24 - - 0.2
19/12:00am 8.4 2.3 8.3 99 0.1 S 30 50 16 27 - - 0.0
 
Date/Time
EDT
Temp
°C
App
Temp
°C
Dew
Point
°C
Rel
Hum
%
Delta-T
°C
Wind Press
QNH
hPa
Press
MSL
hPa
Rain since
9am
mm
Dir  Spd
km/h
Gust
km/h
Spd
kts
Gust
kts
18/11:30pm 8.3 2.6 8.2 99 0.1 SSW 28 46 15 25 - - 0.0
18/11:12pm 8.6 2.6 8.5 99 0.1 SSW 30 48 16 26 - - 0.0
18/11:00pm 8.5 3.5 8.2 98 0.2 SSW 24 41 13 22 - - 0.0
18/10:44pm 8.4 2.6 8.1 98 0.2 SSW 28 46 15 25 - - 0.0
18/10:30pm 8.4 3.0 8.1 98 0.2 SSW 26 43 14 23 - - 0.0
18/10:05pm 8.5 1.9 7.7 95 0.4 SSW 32 50 17 27 - - 0.0
18/10:00pm 8.6 2.4 7.7 94 0.4 SSW 30 46 16 25 - - 0.0
18/09:32pm 9.2 2.4 7.8 91 0.7 SSW 33 54 18 29 - - 0.0
18/09:30pm 9.2 2.4 7.8 91 0.7 SSW 33 50 18 27 - - 0.0
18/09:00pm 9.8 2.6 7.7 87 1.1 SSW 35 57 19 31 - - 0.0
18/08:30pm 10.6 4.4 7.8 83 1.4 SSW 30 52 16 28 - - 0.0
18/08:03pm 11.7 6.0 8.2 79 1.8 SSW 28 46 15 25 - - 0.0
18/08:00pm 11.9 6.6 8.4 79 1.8 SSW 26 46 14 25 - - 0.0
18/07:30pm 12.8 8.1 9.1 78 2.0 SSW 24 37 13 20 - - 0.0
18/07:13pm 12.7 7.1 8.6 76 2.1 SSW 28 46 15 25 - - 0.0
18/07:00pm 13.0 7.4 8.7 75 2.3 SSW 28 44 15 24 - - 0.0
18/06:30pm 14.5 9.0 9.1 70 2.9 SSW 28 43 15 23 - - 0.0
18/06:00pm 16.3 12.0 10.6 69 3.2 SSW 24 44 13 24 - - 0.0
18/05:30pm 16.5 11.3 10.4 67 3.4 SSW 28 46 15 25 - - 0.0
18/05:00pm 17.8 12.5 9.9 60 4.4 SSW 28 46 15 25 - - 0.0
18/04:55pm 17.6 12.3 9.8 60 4.3 SSW 28 46 15 25 - - 0.0
18/04:30pm 18.9 14.4 10.2 57 4.9 SW 24 41 13 22 - - 0.0
18/04:00pm 19.2 14.5 10.5 57 4.9 SW 26 43 14 23 - - 0.0
18/03:30pm 18.9 14.5 10.5 58 4.7 SSW 24 37 13 20 - - 0.0
18/03:00pm 20.0 16.4 10.7 55 5.3 SW 20 39 11 21 - - 0.0
18/02:30pm 19.1 14.9 9.6 54 5.3 SW 22 37 12 20 - - 0.0
18/02:00pm 18.7 15.1 10.5 59 4.6 SW 20 41 11 22 - - 0.0
18/01:30pm 17.9 14.9 10.8 63 4.0 SW 17 30 9 16 - - 0.0
18/01:00pm 17.2 13.7 10.3 64 3.8 SW 19 32 10 17 - - 0.0
18/12:30pm 16.1 13.8 11.7 75 2.5 SW 15 26 8 14 - - 0.0
18/12:00pm 12.7 9.2 10.2 85 1.4 SW 19 35 10 19 - - 0.0
18/11:30am 11.6 8.2 11.4 99 0.1 SW 20 30 11 16 - - 0.0
18/11:00am 10.4 6.0 10.4 100 0.0 SSW 24 35 13 19 - - 0.0
18/10:30am 10.2 6.5 10.2 100 0.0 SSW 20 35 11 19 - - 0.0
18/10:00am 9.7 5.5 9.7 100 0.0 SSW 22 41 12 22 - - 0.0
18/09:32am 9.2 3.3 9.2 100 0.0 SSW 30 48 16 26 - - 0.0
18/09:30am 9.2 3.3 9.2 100 0.0 SSW 30 44 16 24 - - 0.0
18/09:21am 9.0 2.7 9.0 100 0.0 SSW 32 50 17 27 - - 0.0
18/09:00am 8.8 2.3 8.8 100 0.0 SSW 33 46 18 25 - - 0.4
18/08:30am 8.5 1.1 8.5 100 0.0 SSW 37 54 20 29 - - 0.4
18/08:00am 8.2 0.4 8.2 100 0.0 SSW 39 56 21 30 - - 0.4
18/07:57am 8.2 0.0 8.2 100 0.0 SSW 41 59 22 32 - - 0.4
18/07:30am 7.8 -1.1 7.8 100 0.0 SSW 44 61 24 33 - - 0.2
18/07:00am 7.9 -0.9 7.9 100 0.0 SSW 44 59 24 32 - - 0.2
18/06:53am 7.8 -1.1 7.8 100 0.0 SSW 44 63 24 34 - - 0.2
18/06:30am 7.9 -1.0 7.8 99 0.0 SSW 44 57 24 31 - - 0.2
18/06:00am 7.6 -1.1 7.5 99 0.0 SSW 43 61 23 33 - - 0.2
18/05:41am 7.4 -1.4 7.3 99 0.0 SSW 43 63 23 34 - - 0.2
18/05:30am 7.3 -1.1 7.2 99 0.0 SSW 41 56 22 30 - - 0.2
18/05:00am 7.3 -0.8 7.2 99 0.0 SSW 39 54 21 29 - - 0.2
18/04:30am 7.1 -0.2 7.0 99 0.0 SSW 35 46 19 25 - - 0.0
18/04:00am 6.8 0.3 6.7 99 0.0 SSW 30 41 16 22 - - 0.0
18/03:30am 6.6 0.5 6.5 99 0.0 SSW 28 35 15 19 - - 0.0
18/03:00am 6.1 -0.1 6.0 99 0.0 SSW 28 33 15 18 - - 0.0
18/02:30am 6.1 -0.1 6.0 99 0.0 SSW 28 35 15 19 - - 0.0
18/02:00am 6.5 0.0 6.4 99 0.0 SSW 30 37 16 20 - - 0.0
18/01:30am 6.8 -0.6 6.7 99 0.0 SSW 35 43 19 23 - - 0.0
18/01:00am 7.1 0.3 7.0 99 0.0 SSW 32 41 17 22 - - 0.0
18/12:30am 7.2 1.2 6.9 98 0.1 SSW 28 39 15 21 - - 0.0
18/12:00am 7.4 1.8 7.1 98 0.1 S 26 37 14 20 - - 0.0
 
Date/Time
EDT
Temp
°C
App
Temp
°C
Dew
Point
°C
Rel
Hum
%
Delta-T
°C
Wind Press
QNH
hPa
Press
MSL
hPa
Rain since
9am
mm
Dir  Spd
km/h
Gust
km/h
Spd
kts
Gust
kts
17/11:30pm 7.5 1.5 7.1 97 0.2 S 28 41 15 22 - - 0.0
17/11:00pm 7.8 2.9 6.9 94 0.4 S 22 32 12 17 - - 0.0
17/10:30pm 8.2 2.5 6.8 91 0.7 SSW 26 33 14 18 - - 0.0
17/10:00pm 8.9 2.5 6.9 87 1.0 SSW 30 39 16 21 - - 0.0
17/09:30pm 9.7 3.6 6.8 82 1.4 SSW 28 39 15 21 - - 0.0
17/09:00pm 10.6 4.9 6.6 76 2.0 SSW 26 37 14 20 - - 0.0
17/08:30pm 11.9 6.4 6.0 67 2.9 SSW 24 35 13 19 - - 0.0
17/08:00pm 13.3 7.8 5.9 61 3.7 SSW 24 37 13 20 - - 0.0
17/07:30pm 14.2 8.7 5.8 57 4.2 SSW 24 39 13 21 - - 0.0
17/07:00pm 14.9 9.5 6.2 56 4.4 SSW 24 39 13 21 - - 0.0
17/06:30pm 16.2 11.2 6.6 53 4.9 SW 22 35 12 19 - - 0.0
17/06:00pm 17.0 12.6 7.6 54 5.0 SW 20 32 11 17 - - 0.0
17/05:30pm 17.3 13.1 7.6 53 5.1 SW 19 32 10 17 - - 0.0
17/05:00pm 17.0 12.6 7.4 53 5.0 SSW 20 32 11 17 - - 0.0
17/04:30pm 17.2 12.3 7.0 51 5.3 SSW 22 35 12 19 - - 0.0
17/04:00pm 16.9 12.7 7.3 53 5.0 SSW 19 30 10 16 - - 0.0
17/03:30pm 17.1 13.1 8.3 56 4.7 SSW 19 32 10 17 - - 0.0
17/03:00pm 16.9 12.4 7.0 52 5.2 SW 20 39 11 21 - - 0.0
17/02:30pm 16.8 12.7 8.5 58 4.4 SSW 20 33 11 18 - - 0.0
17/02:00pm 16.0 11.7 8.0 59 4.2 SSW 20 33 11 18 - - 0.0
17/01:30pm 15.7 12.0 8.0 60 4.1 SSW 17 26 9 14 - - 0.0
17/01:00pm 15.0 10.9 8.7 66 3.3 SW 20 35 11 19 - - 0.0
17/12:30pm 13.8 10.3 8.6 71 2.7 SSW 17 26 9 14 - - 0.0
17/12:00pm 13.2 10.2 7.6 69 2.9 SSW 13 22 7 12 - - 0.0
17/11:30am 11.3 7.2 6.2 71 2.5 SSW 17 33 9 18 - - 0.0
17/11:00am 10.3 5.9 6.6 78 1.8 SSW 19 39 10 21 - - 0.0
17/10:30am 9.7 5.3 6.4 80 1.6 S 19 30 10 16 - - 0.0
17/10:00am 8.4 4.2 7.5 94 0.4 SSW 19 32 10 17 - - 0.0
17/09:30am 7.6 3.8 7.5 99 0.0 SSW 17 28 9 15 - - 0.0
17/09:00am 7.2 2.9 7.1 99 0.0 SSW 19 32 10 17 - - 1.8
17/08:30am 6.6 1.6 6.5 99 0.0 SSW 22 35 12 19 - - 1.8
17/08:00am 6.2 1.1 6.1 99 0.0 SSW 22 37 12 20 - - 1.8
17/07:30am 6.1 1.0 6.0 99 0.0 SSW 22 39 12 21 - - 1.8
17/07:00am 6.0 0.9 5.9 99 0.0 SSW 22 35 12 19 - - 1.8
17/06:30am 5.9 0.8 5.8 99 0.0 SSW 22 33 12 18 - - 1.8
17/06:00am 6.1 1.0 6.0 99 0.0 SSW 22 32 12 17 - - 1.8
17/05:30am 6.5 1.9 6.4 99 0.0 SSW 20 33 11 18 - - 1.8
17/05:00am 6.7 1.7 6.6 99 0.0 SSW 22 35 12 19 - - 1.8
17/04:30am 6.7 0.6 6.6 99 0.0 SSW 28 43 15 23 - - 1.8
17/04:00am 6.8 2.2 6.7 99 0.0 SSW 20 32 11 17 - - 1.8
17/03:30am 6.9 2.4 6.8 99 0.0 SW 20 35 11 19 - - 1.8
17/03:00am 6.7 1.4 6.6 99 0.0 SW 24 39 13 21 - - 1.8
17/02:30am 6.5 1.1 6.4 99 0.0 SW 24 33 13 18 - - 1.8
17/02:00am 6.9 1.2 6.8 99 0.0 SW 26 33 14 18 - - 1.8
17/01:30am 6.9 0.8 6.8 99 0.0 SW 28 43 15 23 - - 1.8
17/01:00am 7.1 1.1 7.0 99 0.0 SW 28 39 15 21 - - 1.8
17/12:30am 7.1 1.1 7.0 99 0.0 SW 28 39 15 21 - - 1.8
17/12:00am 7.7 2.2 7.6 99 0.0 SW 26 39 14 21 - - 1.8
 
Date/Time
EDT
Temp
°C
App
Temp
°C
Dew
Point
°C
Rel
Hum
%
Delta-T
°C
Wind Press
QNH
hPa
Press
MSL
hPa
Rain since
9am
mm
Dir  Spd
km/h
Gust
km/h
Spd
kts
Gust
kts
16/11:30pm 7.9 1.3 7.8 99 0.0 SW 32 50 17 27 - - 1.8
16/11:00pm 8.2 2.4 8.1 99 0.1 SW 28 46 15 25 - - 1.8
16/10:32pm 8.2 2.4 8.1 99 0.1 SW 28 50 15 27 - - 1.6
16/10:30pm 8.2 2.8 8.1 99 0.1 SW 26 41 14 22 - - 1.6
16/10:13pm 8.7 3.1 8.6 99 0.1 SW 28 46 15 25 - - 1.6
16/10:00pm 9.2 4.5 9.1 99 0.1 SW 24 43 13 23 - - 1.6
16/09:30pm 9.4 4.7 9.3 99 0.1 SW 24 41 13 22 - - 1.0
16/09:00pm 9.5 4.0 9.2 98 0.2 SW 28 48 15 26 - - 0.8
16/08:58pm 9.6 4.1 9.3 98 0.2 SW 28 48 15 26 - - 0.8
16/08:30pm 10.0 5.0 9.7 98 0.2 WSW 26 39 14 21 - - 0.2
16/08:00pm 10.2 5.2 9.7 97 0.3 WSW 26 39 14 21 - - 0.2
16/07:39pm 10.2 4.9 9.7 97 0.3 SW 28 46 15 25 - - 0.2
16/07:30pm 10.2 4.9 9.7 97 0.3 SW 28 44 15 24 - - 0.2
16/07:01pm 11.0 5.1 9.1 88 1.0 SW 30 48 16 26 - - 0.0
16/07:00pm 11.0 4.7 9.1 88 1.0 SW 32 48 17 26 - - 0.0
16/06:33pm 11.2 5.8 9.6 90 0.8 WSW 28 46 15 25 - - 0.0
16/06:30pm 11.1 5.3 9.5 90 0.8 SW 30 46 16 25 - - 0.0
16/06:12pm 11.0 5.4 8.9 87 1.1 WSW 28 46 15 25 - - 0.0
16/06:00pm 11.3 6.1 8.9 85 1.3 WSW 26 41 14 22 - - 0.0
16/05:33pm 11.9 6.3 8.6 80 1.7 WSW 28 46 15 25 - - 0.0
16/05:30pm 12.0 6.7 8.5 79 1.8 WSW 26 43 14 23 - - 0.0

Other formats

Comma delimited format used in spreadsheet applications
http://www.bom.gov.au/fwo/IDV60801/IDV60801.94835.axf

JavaScript Object Notation format (JSON) in row-major order
http://www.bom.gov.au/fwo/IDV60801/IDV60801.94835.json

Data quality

Most of these data are generated automatically and are frequently updated. Quality checks on data are not normally performed. It is possible for incorrect values to appear. Refer to information at About Latest Weather Observations and please check the disclaimer before using these data.